Time;durP1;ratioP1;P1;durP2;ratioP2;P2;SDS_P1;SDS_P2;PMS_P1;PMS_P2;Temp;Humidity;BMP_temperature;BMP_pressure;BME280_temperature;BME280_humidity;BME280_pressure;Samples;Min_cycle;Max_cycle;Signal;HPM_P1;HPM_P2
2023/08/03 00:01:10;;;;;;;2.08;0.90;;;16.00;99.90;;;;;;7369980;32;20183;-55
2023/08/03 00:05:13;;;;;;;3.87;0.88;;;16.00;99.90;;;;;;7371223;32;20131;-56
2023/08/03 00:09:15;;;;;;;4.85;0.98;;;15.90;99.90;;;;;;7363429;32;20225;-56
2023/08/03 00:13:16;;;;;;;4.03;1.00;;;15.90;99.90;;;;;;7365676;32;20780;-55
2023/08/03 00:17:18;;;;;;;3.85;0.90;;;16.00;99.90;;;;;;7362697;32;20167;-57
2023/08/03 00:21:20;;;;;;;2.20;0.77;;;16.00;99.90;;;;;;7366918;32;20103;-56
2023/08/03 00:25:22;;;;;;;3.30;0.85;;;16.00;99.90;;;;;;7372277;32;20264;-56
2023/08/03 00:29:24;;;;;;;2.05;0.77;;;16.10;99.90;;;;;;7370282;32;20103;-56
2023/08/03 00:33:26;;;;;;;1.42;0.55;;;16.10;99.90;;;;;;7370133;32;21217;-56
2023/08/03 00:37:29;;;;;;;2.45;0.60;;;16.20;99.90;;;;;;7365158;32;20130;-55
2023/08/03 00:41:31;;;;;;;2.03;0.50;;;16.20;99.90;;;;;;7368050;32;20155;-56
2023/08/03 00:45:33;;;;;;;1.73;0.50;;;16.30;99.90;;;;;;7372488;32;20132;-56
2023/08/03 00:49:35;;;;;;;1.95;0.50;;;16.30;99.90;;;;;;7375218;32;20213;-56
2023/08/03 00:53:36;;;;;;;2.50;0.70;;;16.40;99.90;;;;;;7369327;32;20091;-55
2023/08/03 00:57:38;;;;;;;2.40;0.50;;;16.40;99.90;;;;;;7363939;32;20168;-55
2023/08/03 01:01:41;;;;;;;2.25;0.80;;;16.30;99.90;;;;;;7369911;32;20133;-55
2023/08/03 01:05:43;;;;;;;3.12;0.80;;;16.20;99.90;;;;;;7373340;32;20156;-55
2023/08/03 01:09:45;;;;;;;3.60;0.50;;;16.10;99.90;;;;;;7362370;32;20403;-56
2023/08/03 01:13:47;;;;;;;2.85;0.80;;;16.00;99.90;;;;;;7371215;32;20201;-55
2023/08/03 01:17:48;;;;;;;5.70;1.00;;;15.90;99.90;;;;;;7355120;32;20243;-55
2023/08/03 01:21:51;;;;;;;3.67;1.10;;;15.80;99.90;;;;;;7366663;32;20115;-56
2023/08/03 01:25:52;;;;;;;5.35;0.95;;;15.80;99.90;;;;;;7366116;32;20119;-55
2023/08/03 01:29:54;;;;;;;3.83;0.82;;;15.80;99.90;;;;;;7371457;32;20316;-56
2023/08/03 01:33:57;;;;;;;3.50;0.95;;;15.70;99.90;;;;;;7369975;32;20252;-55
2023/08/03 01:37:58;;;;;;;4.00;1.00;;;15.70;99.90;;;;;;7372790;32;20133;-55
2023/08/03 01:42:00;;;;;;;2.50;1.20;;;15.70;99.90;;;;;;7371811;32;20490;-55
2023/08/03 01:46:02;;;;;;;3.90;1.30;;;15.70;99.90;;;;;;7377289;32;20111;-56
2023/08/03 01:50:04;;;;;;;5.32;1.10;;;15.70;99.90;;;;;;7375872;32;20259;-55
2023/08/03 01:54:08;;;;;;;5.22;1.20;;;15.70;99.90;;;;;;7366570;32;20115;-55
2023/08/03 01:58:11;;;;;;;4.07;1.33;;;15.80;99.90;;;;;;7373489;32;20258;-55
2023/08/03 02:02:13;;;;;;;8.13;1.48;;;15.70;99.90;;;;;;7366237;32;20168;-55
2023/08/03 02:06:15;;;;;;;4.00;1.37;;;15.80;99.90;;;;;;7366897;32;20145;-55
2023/08/03 02:10:17;;;;;;;7.57;1.30;;;15.80;99.90;;;;;;7375693;32;20300;-55
2023/08/03 02:14:18;;;;;;;3.83;1.37;;;15.80;99.90;;;;;;7370458;32;20221;-55
2023/08/03 02:18:20;;;;;;;7.30;1.42;;;15.80;99.90;;;;;;7370283;32;20111;-56
2023/08/03 02:22:22;;;;;;;7.82;1.62;;;15.70;99.90;;;;;;7366787;32;20115;-54
2023/08/03 02:26:23;;;;;;;4.37;1.30;;;15.70;99.90;;;;;;7376189;32;20570;-55
2023/08/03 02:30:25;;;;;;;7.95;1.50;;;15.70;99.90;;;;;;7364730;32;20281;-55
2023/08/03 02:34:27;;;;;;;5.22;1.40;;;15.60;99.90;;;;;;7368862;32;20269;-55
2023/08/03 02:38:28;;;;;;;8.40;1.50;;;15.60;99.90;;;;;;7371886;32;20243;-55
2023/08/03 02:42:30;;;;;;;4.93;1.30;;;15.60;99.90;;;;;;7376403;32;20246;-55
2023/08/03 02:46:32;;;;;;;8.23;1.55;;;15.60;99.90;;;;;;7372427;32;20123;-55
2023/08/03 02:50:34;;;;;;;5.70;1.37;;;15.60;99.90;;;;;;7369257;32;20115;-56
2023/08/03 02:54:35;;;;;;;5.03;1.62;;;15.60;99.90;;;;;;7363154;32;20851;-55
2023/08/03 02:58:37;;;;;;;5.45;1.45;;;15.60;99.90;;;;;;7363813;32;20198;-55
2023/08/03 03:02:39;;;;;;;4.32;1.10;;;15.60;99.90;;;;;;7369111;32;20187;-54
2023/08/03 03:06:42;;;;;;;5.93;1.20;;;15.70;99.90;;;;;;7364110;32;20129;-55
2023/08/03 03:10:44;;;;;;;5.97;1.30;;;15.70;99.90;;;;;;7367379;32;20287;-55
2023/08/03 03:14:46;;;;;;;4.90;1.33;;;15.70;99.90;;;;;;7373578;32;20126;-55
2023/08/03 03:18:48;;;;;;;4.40;1.17;;;15.80;99.90;;;;;;7368447;32;20127;-55
2023/08/03 03:22:49;;;;;;;6.80;1.15;;;15.70;99.90;;;;;;7368092;32;20240;-55
2023/08/03 03:26:51;;;;;;;5.18;1.00;;;15.70;99.90;;;;;;7366421;32;20127;-55
2023/08/03 03:30:53;;;;;;;3.85;1.35;;;15.70;99.90;;;;;;7366535;32;20119;-55
2023/08/03 03:34:55;;;;;;;4.20;1.27;;;15.60;99.90;;;;;;7372442;32;20112;-55
2023/08/03 03:38:56;;;;;;;4.97;0.90;;;15.70;99.90;;;;;;7366207;32;20220;-57
2023/08/03 03:42:58;;;;;;;2.20;0.82;;;15.70;99.90;;;;;;7371334;32;20802;-55
2023/08/03 03:47:00;;;;;;;7.68;1.08;;;15.70;99.90;;;;;;7360321;32;20198;-54
2023/08/03 03:51:02;;;;;;;3.70;0.90;;;15.70;99.90;;;;;;7372838;32;20285;-55
2023/08/03 03:55:04;;;;;;;4.35;1.00;;;15.80;99.90;;;;;;7368203;32;20185;-55
2023/08/03 03:59:05;;;;;;;3.33;0.65;;;15.80;99.90;;;;;;7367108;32;20138;-55
2023/08/03 04:03:08;;;;;;;3.70;0.98;;;15.80;99.90;;;;;;7366321;32;20209;-55
2023/08/03 04:07:10;;;;;;;2.90;0.77;;;15.80;99.90;;;;;;7373028;32;20155;-55
2023/08/03 04:11:12;;;;;;;2.83;0.82;;;15.90;99.90;;;;;;7374224;32;20107;-54
2023/08/03 04:15:13;;;;;;;3.20;0.80;;;16.00;99.90;;;;;;7367812;32;20134;-55
2023/08/03 04:19:15;;;;;;;2.42;0.80;;;16.00;99.90;;;;;;7368929;32;20602;-55
2023/08/03 04:23:17;;;;;;;3.83;1.02;;;16.00;99.90;;;;;;7366355;32;20210;-55
2023/08/03 04:27:18;;;;;;;3.42;0.90;;;16.00;99.90;;;;;;7366498;32;20224;-55
2023/08/03 04:31:20;;;;;;;4.78;1.35;;;16.10;99.90;;;;;;7366794;32;20143;-56
2023/08/03 04:35:22;;;;;;;3.92;0.70;;;16.10;99.90;;;;;;7367496;32;20114;-56
2023/08/03 04:39:24;;;;;;;3.72;0.80;;;16.10;99.90;;;;;;7362148;32;20114;-55
2023/08/03 04:43:27;;;;;;;6.35;1.15;;;16.20;99.90;;;;;;7366768;32;20133;-54
2023/08/03 04:47:29;;;;;;;1.50;0.50;;;16.20;99.90;;;;;;7360962;32;20213;-56
2023/08/03 04:51:30;;;;;;;2.00;0.73;;;16.20;99.90;;;;;;7373278;32;20137;-55
2023/08/03 04:55:32;;;;;;;2.22;0.73;;;16.40;99.90;;;;;;7359254;32;20247;-56
2023/08/03 04:59:34;;;;;;;5.75;0.57;;;16.30;99.90;;;;;;7365702;32;20198;-57
2023/08/03 05:03:36;;;;;;;1.95;0.60;;;16.30;99.90;;;;;;7350106;32;20692;-56
2023/08/03 05:07:38;;;;;;;3.58;0.60;;;16.30;99.90;;;;;;7357722;32;20161;-56
2023/08/03 05:11:40;;;;;;;1.33;0.50;;;16.30;99.90;;;;;;7364345;32;20915;-56
2023/08/03 05:15:41;;;;;;;1.98;0.57;;;16.30;99.90;;;;;;7363132;32;20207;-56
2023/08/03 05:19:43;;;;;;;2.40;0.60;;;16.30;99.90;;;;;;7361754;32;20584;-56
2023/08/03 05:23:47;;;;;;;2.42;0.47;;;16.40;99.90;;;;;;7364137;32;20170;-57
2023/08/03 05:27:48;;;;;;;1.35;0.35;;;16.40;99.90;;;;;;7367705;32;20212;-56
2023/08/03 05:31:50;;;;;;;4.30;0.55;;;16.50;99.90;;;;;;7363429;32;20193;-56
2023/08/03 05:35:52;;;;;;;4.28;0.50;;;16.50;99.90;;;;;;7365219;32;20115;-57
2023/08/03 05:39:54;;;;;;;1.58;0.60;;;16.60;99.90;;;;;;7359267;32;20140;-56
2023/08/03 05:43:56;;;;;;;2.78;0.47;;;16.60;99.90;;;;;;7362064;32;20640;-56
2023/08/03 05:47:58;;;;;;;3.12;0.70;;;16.60;99.90;;;;;;7361380;32;20348;-56
2023/08/03 05:52:00;;;;;;;2.28;0.70;;;16.50;99.90;;;;;;7361973;32;20544;-56
2023/08/03 05:56:08;;;;;;;0.90;0.47;;;16.40;99.90;;;;;;7360100;32;20786;-56
2023/08/03 06:00:19;;;;;;;0.90;0.57;;;16.20;99.90;;;;;;7366818;32;20713;-56
2023/08/03 06:04:21;;;;;;;2.53;0.45;;;16.10;99.90;;;;;;7362292;32;20194;-56
2023/08/03 06:08:25;;;;;;;2.20;0.70;;;16.00;99.90;;;;;;7362825;32;20111;-56
2023/08/03 06:12:26;;;;;;;3.20;1.15;;;16.00;99.90;;;;;;7370858;32;20205;-55
2023/08/03 06:16:28;;;;;;;4.72;0.80;;;15.90;99.90;;;;;;7373741;32;20107;-56
2023/08/03 06:20:30;;;;;;;2.83;0.90;;;15.80;99.90;;;;;;7369798;32;20201;-56
2023/08/03 06:24:32;;;;;;;6.15;0.70;;;15.80;99.90;;;;;;7366328;32;20258;-56
2023/08/03 06:28:34;;;;;;;4.10;0.80;;;15.70;99.90;;;;;;7362289;32;20225;-56
2023/08/03 06:32:36;;;;;;;4.22;0.90;;;15.60;99.90;;;;;;7364480;32;20265;-56
2023/08/03 06:36:40;;;;;;;2.60;1.12;;;15.60;99.90;;;;;;7367678;32;20107;-57
2023/08/03 06:40:43;;;;;;;3.22;1.20;;;15.60;99.90;;;;;;7367469;32;20607;-57
2023/08/03 06:44:45;;;;;;;4.12;1.02;;;15.60;99.90;;;;;;7368131;32;20115;-56
2023/08/03 06:48:47;;;;;;;2.03;0.70;;;15.60;99.90;;;;;;7369226;32;20107;-56
2023/08/03 06:52:50;;;;;;;3.17;1.00;;;15.60;99.90;;;;;;7369936;32;20209;-57
2023/08/03 06:56:52;;;;;;;2.65;1.15;;;15.60;99.90;;;;;;7370421;32;20163;-57
2023/08/03 07:00:54;;;;;;;4.32;1.20;;;15.60;99.90;;;;;;7360364;32;20203;-56
2023/08/03 07:04:55;;;;;;;4.32;1.20;;;15.60;99.90;;;;;;7370246;32;20125;-57
2023/08/03 07:08:57;;;;;;;5.35;1.15;;;15.60;99.90;;;;;;7367203;32;20236;-56
2023/08/03 07:12:59;;;;;;;2.22;1.15;;;15.60;99.90;;;;;;7368293;32;20236;-56
2023/08/03 07:17:01;;;;;;;3.50;1.17;;;15.60;99.90;;;;;;7366810;32;20748;-57
2023/08/03 07:21:04;;;;;;;2.17;1.42;;;15.60;99.90;;;;;;7365145;32;20111;-56
2023/08/03 07:25:06;;;;;;;5.22;1.40;;;15.60;99.90;;;;;;7363254;32;20341;-57
2023/08/03 07:29:08;;;;;;;4.25;1.70;;;15.70;99.90;;;;;;7364225;32;20138;-56
2023/08/03 07:33:10;;;;;;;4.82;1.30;;;15.70;99.90;;;;;;7363203;32;20107;-56
2023/08/03 07:37:11;;;;;;;5.60;1.30;;;15.80;99.90;;;;;;7362731;32;20281;-56
2023/08/03 07:41:13;;;;;;;3.97;1.73;;;15.90;99.90;;;;;;7364584;32;20130;-56
2023/08/03 07:45:15;;;;;;;2.58;1.35;;;16.00;99.90;;;;;;7373148;32;20229;-57
2023/08/03 07:49:37;;;;;;;4.15;1.25;;;16.10;99.90;;;;;;7366818;32;20326;-56
2023/08/03 07:53:38;;;;;;;3.47;1.10;;;16.30;99.90;;;;;;7365596;32;20261;-56
2023/08/03 07:57:40;;;;;;;3.92;0.98;;;16.30;99.90;;;;;;7363689;32;20106;-58
2023/08/03 08:01:45;;;;;;;2.45;0.65;;;16.50;99.90;;;;;;7362306;32;20107;-57
2023/08/03 08:05:47;;;;;;;3.70;1.27;;;16.60;99.90;;;;;;7368349;32;20100;-55
2023/08/03 08:09:52;;;;;;;3.05;1.00;;;16.70;99.90;;;;;;7363595;32;20209;-57
2023/08/03 08:13:57;;;;;;;3.33;1.20;;;16.80;99.90;;;;;;7367246;32;20106;-57
2023/08/03 08:17:58;;;;;;;5.10;1.37;;;16.80;99.90;;;;;;7373238;32;20182;-56
2023/08/03 08:22:00;;;;;;;3.28;1.70;;;17.00;99.90;;;;;;7367343;32;20123;-56
2023/08/03 08:26:17;;;;;;;4.10;1.52;;;17.00;99.90;;;;;;7365330;32;20099;-56
2023/08/03 08:30:19;;;;;;;4.28;1.60;;;17.00;99.90;;;;;;7364426;32;20104;-56
2023/08/03 08:34:21;;;;;;;3.80;1.58;;;16.90;99.90;;;;;;7371653;32;20206;-56
2023/08/03 08:38:23;;;;;;;4.15;1.10;;;16.80;99.90;;;;;;7362397;32;20104;-55
2023/08/03 08:42:25;;;;;;;4.60;1.77;;;16.70;99.90;;;;;;7367553;32;20501;-56
2023/08/03 08:46:26;;;;;;;5.10;1.37;;;16.80;99.90;;;;;;7364885;32;20165;-57
2023/08/03 08:50:29;;;;;;;6.82;1.33;;;16.70;99.90;;;;;;7361561;32;20103;-56
2023/08/03 08:54:34;;;;;;;5.30;1.62;;;16.70;99.90;;;;;;7365346;32;20119;-56
2023/08/03 08:58:39;;;;;;;4.35;1.92;;;16.70;99.90;;;;;;7368036;32;20224;-56
2023/08/03 09:02:44;;;;;;;7.18;1.35;;;16.90;99.90;;;;;;7368384;32;20598;-57
2023/08/03 09:06:46;;;;;;;6.43;1.00;;;17.00;99.90;;;;;;7376188;32;20715;-56
2023/08/03 09:10:49;;;;;;;5.03;1.02;;;17.10;99.90;;;;;;7369445;32;20106;-56
2023/08/03 09:14:52;;;;;;;4.60;1.00;;;17.10;99.90;;;;;;7368779;32;20234;-57
2023/08/03 09:18:53;;;;;;;3.78;0.90;;;17.10;99.90;;;;;;7370941;32;20743;-56
2023/08/03 09:22:55;;;;;;;4.60;1.00;;;17.20;99.90;;;;;;7367286;32;20115;-56
2023/08/03 09:27:00;;;;;;;3.75;1.40;;;17.40;99.90;;;;;;7368755;32;20213;-56
2023/08/03 09:31:02;;;;;;;2.42;1.02;;;17.50;99.90;;;;;;7370227;32;20215;-56
2023/08/03 09:35:16;;;;;;;5.68;1.15;;;17.50;99.90;;;;;;7366696;32;20516;-57
2023/08/03 09:39:20;;;;;;;3.15;0.90;;;17.50;99.90;;;;;;7370499;32;20114;-56
2023/08/03 09:43:26;;;;;;;4.15;1.60;;;17.60;99.90;;;;;;7362936;32;20127;-57
2023/08/03 09:47:31;;;;;;;2.63;1.13;;;17.50;99.90;;;;;;7366013;32;20191;-56
2023/08/03 09:51:36;;;;;;;2.22;0.82;;;17.80;99.90;;;;;;7369906;32;20230;-56
2023/08/03 09:55:42;;;;;;;3.67;1.00;;;17.90;99.90;;;;;;7375055;32;20126;-56
2023/08/03 09:59:46;;;;;;;3.22;0.98;;;17.90;99.90;;;;;;7363428;32;20138;-56
2023/08/03 10:03:58;;;;;;;8.02;1.37;;;17.90;99.90;;;;;;7370264;32;20115;-56
2023/08/03 10:08:15;;;;;;;3.08;0.77;;;17.90;99.90;;;;;;7366013;32;20650;-56
2023/08/03 10:12:24;;;;;;;5.78;1.10;;;17.90;99.90;;;;;;7370704;32;20214;-56
2023/08/03 10:16:26;;;;;;;2.33;0.88;;;17.80;99.90;;;;;;7366796;32;20118;-56
2023/08/03 10:20:28;;;;;;;4.03;1.10;;;17.90;99.90;;;;;;7371343;32;20140;-56
2023/08/03 10:24:30;;;;;;;3.90;1.20;;;17.90;99.90;;;;;;7369824;32;20106;-56
2023/08/03 10:28:41;;;;;;;2.67;1.00;;;17.90;99.90;;;;;;7364323;32;20952;-56
2023/08/03 10:32:50;;;;;;;4.90;1.17;;;17.80;99.90;;;;;;7367903;32;20153;-56
2023/08/03 10:36:55;;;;;;;3.53;1.10;;;17.80;99.90;;;;;;7361519;32;20125;-57
2023/08/03 10:41:20;;;;;;;4.60;1.30;;;17.80;99.90;;;;;;7365012;32;20332;-56
2023/08/03 10:45:21;;;;;;;4.75;1.10;;;18.00;99.90;;;;;;7366964;32;20115;-56
2023/08/03 10:49:23;;;;;;;6.00;1.30;;;18.10;99.90;;;;;;7376088;32;20095;-56
2023/08/03 10:53:25;;;;;;;3.45;1.10;;;17.90;99.90;;;;;;7365055;32;20505;-56
2023/08/03 10:57:29;;;;;;;3.78;1.37;;;17.60;99.90;;;;;;7361681;32;20273;-56
2023/08/03 11:01:31;;;;;;;3.62;1.37;;;17.60;99.90;;;;;;7368294;32;20556;-56
2023/08/03 11:05:33;;;;;;;3.75;1.52;;;17.60;99.90;;;;;;7368605;32;20129;-56
2023/08/03 11:09:35;;;;;;;3.92;1.10;;;17.70;99.90;;;;;;7363743;32;20191;-56
2023/08/03 11:13:37;;;;;;;4.28;1.30;;;17.60;99.90;;;;;;7354588;32;20103;-56
2023/08/03 11:17:47;;;;;;;2.85;1.00;;;17.70;99.90;;;;;;7367714;32;20122;-56
2023/08/03 11:21:49;;;;;;;6.07;1.20;;;17.90;99.90;;;;;;7364577;32;20260;-56
2023/08/03 11:25:51;;;;;;;6.47;1.12;;;18.10;99.90;;;;;;7366337;32;20153;-56
2023/08/03 11:29:53;;;;;;;2.62;1.00;;;18.20;99.90;;;;;;7362734;32;20563;-56
2023/08/03 11:33:55;;;;;;;6.22;1.62;;;18.40;99.90;;;;;;7364817;32;20194;-57
2023/08/03 11:37:57;;;;;;;2.97;0.90;;;18.40;99.90;;;;;;7360792;32;20131;-57
2023/08/03 11:42:00;;;;;;;3.67;0.90;;;18.50;99.90;;;;;;7365353;32;20494;-56
2023/08/03 11:46:02;;;;;;;4.32;1.02;;;18.60;99.90;;;;;;7362989;32;20111;-56
2023/08/03 11:50:04;;;;;;;3.05;1.05;;;18.80;99.90;;;;;;7366838;32;20130;-56
2023/08/03 11:54:08;;;;;;;2.72;1.23;;;18.70;99.90;;;;;;7367059;32;20133;-56
2023/08/03 11:58:12;;;;;;;2.60;1.10;;;18.70;99.90;;;;;;7367755;32;20123;-56
2023/08/03 12:02:14;;;;;;;1.87;0.65;;;18.80;99.90;;;;;;7361944;32;20119;-57
2023/08/03 12:06:16;;;;;;;2.05;0.60;;;18.70;99.90;;;;;;7368571;32;20255;-56
2023/08/03 12:10:20;;;;;;;2.92;0.90;;;18.80;99.90;;;;;;7365173;32;20179;-56
2023/08/03 12:14:22;;;;;;;1.85;0.65;;;18.90;99.90;;;;;;7364354;32;20119;-55
2023/08/03 12:18:25;;;;;;;2.37;0.60;;;19.00;99.90;;;;;;7366625;32;20130;-55
2023/08/03 12:22:27;;;;;;;6.15;1.23;;;19.10;99.90;;;;;;7365919;32;20112;-55
2023/08/03 12:26:28;;;;;;;2.22;0.80;;;19.00;99.90;;;;;;7355715;32;20449;-55
2023/08/03 12:30:30;;;;;;;1.87;0.80;;;19.00;99.90;;;;;;7367649;32;20727;-56
2023/08/03 12:34:32;;;;;;;1.58;0.90;;;18.80;99.90;;;;;;7361016;32;20530;-55
2023/08/03 12:38:33;;;;;;;0.98;0.60;;;18.80;99.90;;;;;;7366840;32;20111;-55
2023/08/03 12:42:35;;;;;;;3.05;0.60;;;18.80;99.90;;;;;;7370880;32;20159;-55
2023/08/03 12:46:37;;;;;;;2.97;0.73;;;18.80;99.90;;;;;;7364170;32;20269;-55
2023/08/03 12:50:39;;;;;;;1.05;0.70;;;18.80;99.90;;;;;;7361799;32;20433;-55
2023/08/03 12:54:40;;;;;;;1.75;0.73;;;18.80;99.90;;;;;;7360472;32;20123;-55
2023/08/03 12:58:43;;;;;;;2.67;0.70;;;18.80;99.90;;;;;;7368093;32;20225;-56
2023/08/03 13:02:45;;;;;;;1.92;0.80;;;18.90;99.90;;;;;;7370418;32;20126;-56
2023/08/03 13:06:47;;;;;;;2.12;0.70;;;18.80;99.90;;;;;;7365871;32;20108;-57
2023/08/03 13:10:49;;;;;;;1.80;0.68;;;18.70;99.90;;;;;;7371776;32;20115;-55
2023/08/03 13:14:51;;;;;;;2.70;0.70;;;18.80;99.90;;;;;;7368324;32;20134;-56
2023/08/03 13:18:53;;;;;;;2.72;0.62;;;18.80;99.90;;;;;;7370623;32;20448;-56
2023/08/03 13:22:54;;;;;;;2.70;0.80;;;18.90;99.90;;;;;;7362245;32;20124;-55
2023/08/03 13:27:16;;;;;;;4.82;0.75;;;19.10;99.90;;;;;;7364439;32;20158;-56
2023/08/03 13:31:19;;;;;;;1.92;0.62;;;18.90;99.90;;;;;;7364690;32;20652;-57
2023/08/03 13:35:20;;;;;;;1.02;0.77;;;18.70;99.90;;;;;;7362025;32;20198;-56
2023/08/03 13:39:22;;;;;;;3.47;1.00;;;18.60;99.90;;;;;;7366701;32;20099;-56
2023/08/03 13:43:24;;;;;;;2.58;0.98;;;18.60;99.90;;;;;;7361449;32;20638;-56
2023/08/03 13:47:26;;;;;;;2.12;0.95;;;18.40;99.90;;;;;;7364913;32;20157;-56
2023/08/03 13:51:28;;;;;;;1.98;0.90;;;18.30;99.90;;;;;;7359978;32;20199;-56
2023/08/03 13:55:29;;;;;;;2.20;0.90;;;18.00;99.90;;;;;;7366485;32;20399;-57
2023/08/03 13:59:31;;;;;;;2.05;0.68;;;18.00;99.90;;;;;;7368439;32;20226;-57
2023/08/03 14:03:33;;;;;;;1.95;0.95;;;17.90;99.90;;;;;;7362875;32;20134;-57
2023/08/03 14:07:36;;;;;;;3.60;0.68;;;17.90;99.90;;;;;;7364144;32;20557;-57
2023/08/03 14:11:40;;;;;;;1.62;0.70;;;17.90;99.90;;;;;;7362518;32;20146;-56
2023/08/03 14:15:46;;;;;;;1.33;0.60;;;18.00;99.90;;;;;;7363504;32;20111;-56
2023/08/03 14:20:08;;;;;;;1.08;0.68;;;18.10;99.90;;;;;;7357605;32;20570;-57
2023/08/03 14:24:13;;;;;;;3.15;0.70;;;18.40;99.90;;;;;;7360042;32;20773;-57
2023/08/03 14:28:25;;;;;;;2.62;0.60;;;18.50;99.90;;;;;;7365004;32;20114;-57
2023/08/03 14:32:30;;;;;;;2.20;0.70;;;18.70;99.90;;;;;;7365710;32;20170;-56
2023/08/03 14:36:31;;;;;;;2.87;0.75;;;18.70;99.90;;;;;;7361562;32;20568;-57
2023/08/03 14:40:34;;;;;;;2.55;0.90;;;18.50;99.90;;;;;;7369954;32;20179;-56
2023/08/03 14:44:36;;;;;;;2.67;1.00;;;18.40;99.90;;;;;;7367844;32;20265;-56
2023/08/03 14:48:38;;;;;;;2.92;1.00;;;18.10;99.90;;;;;;7371975;32;20797;-57
2023/08/03 14:52:39;;;;;;;4.53;1.58;;;17.60;99.90;;;;;;7374896;32;20194;-57
2023/08/03 14:56:41;;;;;;;4.82;1.42;;;17.40;99.90;;;;;;7374278;32;20214;-57
2023/08/03 15:00:43;;;;;;;2.62;1.40;;;17.30;99.90;;;;;;7369126;32;20194;-57
2023/08/03 15:04:46;;;;;;;3.67;1.00;;;17.40;99.90;;;;;;7366749;32;20107;-57
2023/08/03 15:08:48;;;;;;;3.17;1.48;;;17.50;99.90;;;;;;7365206;32;20130;-57
2023/08/03 15:12:50;;;;;;;4.28;1.23;;;17.60;99.90;;;;;;7371328;32;20151;-57
2023/08/03 15:16:57;;;;;;;5.80;1.60;;;17.60;99.90;;;;;;7374247;32;20171;-58
2023/08/03 15:21:25;;;;;;;4.45;1.67;;;17.60;99.90;;;;;;7371233;32;20115;-57
2023/08/03 15:25:28;;;;;;;4.10;1.73;;;17.60;99.90;;;;;;7364662;32;20225;-57
2023/08/03 15:29:31;;;;;;;9.27;2.00;;;17.70;99.90;;;;;;7357538;32;20261;-58
2023/08/03 15:33:53;;;;;;;5.22;1.70;;;17.60;99.90;;;;;;7362589;32;20309;-58
2023/08/03 15:37:55;;;;;;;8.80;2.28;;;17.60;99.90;;;;;;7365519;32;20108;-57
2023/08/03 15:42:00;;;;;;;9.45;2.50;;;17.50;99.90;;;;;;7357343;32;20659;-57
2023/08/03 15:46:07;;;;;;;10.67;2.80;;;17.30;99.90;;;;;;7374173;32;20159;-56
2023/08/03 15:50:13;;;;;;;7.87;3.28;;;17.10;99.90;;;;;;7367363;32;20119;-57
2023/08/03 15:54:22;;;;;;;9.02;2.45;;;17.10;99.90;;;;;;7366017;32;20220;-56
2023/08/03 15:58:31;;;;;;;10.43;2.60;;;17.10;99.90;;;;;;7370772;32;20710;-57
2023/08/03 16:02:33;;;;;;;9.85;2.50;;;17.10;99.90;;;;;;7359693;32;20133;-56
2023/08/03 16:06:34;;;;;;;7.20;2.55;;;17.20;99.90;;;;;;7367187;32;20134;-56
2023/08/03 16:10:36;;;;;;;6.85;2.53;;;17.10;99.90;;;;;;7367212;32;20170;-57
2023/08/03 16:14:42;;;;;;;8.70;2.65;;;17.20;99.90;;;;;;7363241;32;20130;-56
2023/08/03 16:18:44;;;;;;;6.12;2.72;;;17.20;99.90;;;;;;7364382;32;20114;-58
2023/08/03 16:22:45;;;;;;;8.68;2.72;;;17.10;99.90;;;;;;7365455;32;20185;-57
2023/08/03 16:26:47;;;;;;;9.50;3.08;;;17.10;99.90;;;;;;7364724;32;20137;-57
2023/08/03 16:30:50;;;;;;;8.25;2.80;;;17.10;99.90;;;;;;7365316;32;20145;-57
2023/08/03 16:34:51;;;;;;;8.55;2.50;;;17.10;99.90;;;;;;7367960;32;20234;-56
2023/08/03 16:38:56;;;;;;;9.63;2.62;;;17.20;99.90;;;;;;7365246;32;20172;-57
2023/08/03 16:42:58;;;;;;;9.57;2.92;;;17.30;99.90;;;;;;7368086;32;20258;-57
2023/08/03 16:46:59;;;;;;;11.50;2.30;;;17.50;99.90;;;;;;7360032;32;20129;-57
2023/08/03 16:51:01;;;;;;;11.07;2.62;;;17.60;99.90;;;;;;7359887;32;20547;-56
2023/08/03 16:55:03;;;;;;;9.65;2.85;;;17.60;99.90;;;;;;7358071;32;20129;-57
2023/08/03 16:59:07;;;;;;;15.25;2.78;;;17.50;99.90;;;;;;7367873;32;20180;-57
2023/08/03 17:03:09;;;;;;;11.60;2.85;;;17.50;99.90;;;;;;7366204;32;20213;-59
2023/08/03 17:07:11;;;;;;;9.27;2.85;;;17.30;99.90;;;;;;7356659;32;20816;-59
2023/08/03 17:11:13;;;;;;;10.07;2.60;;;17.40;99.90;;;;;;7357783;32;20497;-59
2023/08/03 17:15:14;;;;;;;8.45;2.60;;;17.60;99.90;;;;;;7371935;32;20138;-59
2023/08/03 17:19:16;;;;;;;9.50;2.45;;;17.70;99.90;;;;;;7366311;32;20106;-58
2023/08/03 17:23:18;;;;;;;9.50;2.00;;;17.70;99.90;;;;;;7363992;32;20103;-57
2023/08/03 17:27:20;;;;;;;13.77;2.95;;;17.60;99.90;;;;;;7370963;32;20453;-57
2023/08/03 17:31:21;;;;;;;7.32;2.40;;;17.50;99.90;;;;;;7366519;32;20209;-57
2023/08/03 17:35:23;;;;;;;6.87;2.78;;;17.30;99.90;;;;;;7361515;32;20111;-55
2023/08/03 17:39:25;;;;;;;8.02;2.95;;;17.10;99.90;;;;;;7365254;32;20233;-57
2023/08/03 17:43:27;;;;;;;7.68;2.53;;;16.90;99.90;;;;;;7368889;32;20141;-57
2023/08/03 17:47:29;;;;;;;6.25;2.37;;;16.80;99.90;;;;;;7367049;32;20467;-57
2023/08/03 17:51:31;;;;;;;10.93;3.05;;;16.60;99.90;;;;;;7368395;32;20118;-56
2023/08/03 17:55:32;;;;;;;9.32;2.75;;;16.40;99.90;;;;;;7369878;32;20438;-57
2023/08/03 17:59:34;;;;;;;10.68;4.10;;;16.40;99.90;;;;;;7365671;32;20111;-57
2023/08/03 18:03:36;;;;;;;9.40;4.82;;;16.30;99.90;;;;;;7363512;32;20115;-56
2023/08/03 18:07:39;;;;;;;15.75;6.32;;;16.20;99.90;;;;;;7363161;32;20114;-56
2023/08/03 18:11:41;;;;;;;14.55;5.90;;;16.10;99.90;;;;;;7373953;32;20137;-56
2023/08/03 18:15:43;;;;;;;13.57;6.25;;;16.10;99.90;;;;;;7365369;32;20111;-56
2023/08/03 18:19:44;;;;;;;13.00;6.72;;;16.10;99.90;;;;;;7371358;32;20200;-56
2023/08/03 18:23:54;;;;;;;12.48;6.25;;;16.00;99.90;;;;;;7368500;32;20476;-56
2023/08/03 18:27:56;;;;;;;11.20;6.50;;;15.90;99.90;;;;;;7369657;32;20099;-56
2023/08/03 18:32:01;;;;;;;13.88;5.40;;;15.90;99.90;;;;;;7361907;32;20130;-56
2023/08/03 18:36:13;;;;;;;14.23;5.32;;;15.90;99.90;;;;;;7364141;32;20254;-57
2023/08/03 18:40:15;;;;;;;12.00;6.25;;;15.80;99.90;;;;;;7366353;32;20701;-56
2023/08/03 18:44:17;;;;;;;9.27;5.10;;;15.80;99.90;;;;;;7368053;32;20134;-56
2023/08/03 18:48:19;;;;;;;11.10;5.30;;;15.70;99.90;;;;;;7369134;32;20131;-56
2023/08/03 18:52:21;;;;;;;13.00;4.97;;;15.70;99.90;;;;;;7361476;32;20187;-56
2023/08/03 18:56:24;;;;;;;14.20;5.90;;;15.70;99.90;;;;;;7368718;32;20201;-56
2023/08/03 19:00:26;;;;;;;7.95;5.00;;;15.70;99.90;;;;;;7365480;32;20212;-57
2023/08/03 19:04:27;;;;;;;10.93;5.12;;;15.70;99.90;;;;;;7367521;32;20114;-56
2023/08/03 19:08:30;;;;;;;10.13;5.10;;;15.70;99.90;;;;;;7368669;32;20125;-56
2023/08/03 19:12:32;;;;;;;9.60;4.82;;;15.70;99.90;;;;;;7369342;32;20256;-57
2023/08/03 19:16:34;;;;;;;14.45;4.78;;;15.60;99.90;;;;;;7364683;32;20381;-57
2023/08/03 19:20:36;;;;;;;9.18;4.80;;;15.50;99.90;;;;;;7366380;32;20747;-56
2023/08/03 19:24:38;;;;;;;8.90;4.07;;;15.40;99.90;;;;;;7375052;32;20569;-57
2023/08/03 19:28:40;;;;;;;10.50;4.35;;;15.30;99.90;;;;;;7366310;32;20137;-55
2023/08/03 19:32:41;;;;;;;16.67;4.53;;;15.30;99.90;;;;;;7365279;32;20183;-55
2023/08/03 19:36:43;;;;;;;9.23;3.72;;;15.20;99.90;;;;;;7367869;32;20241;-55
2023/08/03 19:40:47;;;;;;;8.27;3.42;;;15.20;99.90;;;;;;7367724;32;20103;-55
2023/08/03 19:44:49;;;;;;;7.18;3.55;;;15.10;99.90;;;;;;7362811;32;20141;-55
2023/08/03 19:48:51;;;;;;;13.65;4.40;;;15.20;99.90;;;;;;7358308;32;20190;-56
2023/08/03 19:52:54;;;;;;;6.40;3.50;;;15.00;99.90;;;;;;7363155;32;20177;-55
2023/08/03 19:56:59;;;;;;;13.20;4.07;;;14.90;99.90;;;;;;7365404;32;20493;-54
2023/08/03 20:01:05;;;;;;;10.60;4.50;;;14.90;99.90;;;;;;7369851;32;20112;-55
2023/08/03 20:05:10;;;;;;;9.05;3.92;;;14.80;99.90;;;;;;7359178;32;20108;-55
2023/08/03 20:09:15;;;;;;;11.82;3.80;;;14.70;99.90;;;;;;7367003;32;20186;-56
2023/08/03 20:13:17;;;;;;;8.75;4.07;;;14.80;99.90;;;;;;7368209;32;20546;-55
2023/08/03 20:17:19;;;;;;;6.97;4.15;;;14.70;99.90;;;;;;7365445;32;20161;-56
2023/08/03 20:21:24;;;;;;;14.10;4.22;;;14.60;99.90;;;;;;7365968;32;20127;-56
2023/08/03 20:25:25;;;;;;;10.60;4.00;;;14.50;99.90;;;;;;7372120;32;20133;-56
2023/08/03 20:29:29;;;;;;;10.13;4.68;;;14.50;99.90;;;;;;7366772;32;20145;-56
2023/08/03 20:33:45;;;;;;;23.87;8.25;;;14.50;99.90;;;;;;7367565;32;20120;-56
2023/08/03 20:37:47;;;;;;;7.78;4.22;;;14.50;99.90;;;;;;7368510;32;20133;-55
2023/08/03 20:41:49;;;;;;;8.60;4.00;;;14.60;99.90;;;;;;7367817;32;20465;-55
2023/08/03 20:45:54;;;;;;;12.05;4.20;;;14.60;99.90;;;;;;7367202;32;20223;-55
2023/08/03 20:49:56;;;;;;;8.93;3.65;;;14.70;99.90;;;;;;7364197;32;20286;-56
2023/08/03 20:53:58;;;;;;;7.10;4.22;;;14.70;99.90;;;;;;7363494;32;20148;-55
2023/08/03 20:58:01;;;;;;;9.40;4.32;;;14.70;99.90;;;;;;7363724;32;20099;-56
2023/08/03 21:02:03;;;;;;;6.47;3.62;;;14.70;99.90;;;;;;7362750;32;20257;-56